Terminal Aerodrome Forecast
Issued by NWS

Home | Current Version | Previous Version | Text Only | Print | Product List | Glossary On
Versions: 1 2 3 4 5 6 7 8 9 10 11 12 13 14 15
976
FTUS43 KGRB 040520
TAFATW
TAF
KATW 040520Z 0406/0506 17004KT P6SM BKN035 OVC080
     FM041300 16005KT P6SM OVC020
      TEMPO 0414/0415 3SM -SN OVC012
     FM041500 16006KT 1 1/2SM -SN OVC008
      TEMPO 0418/0422 3/4SM -SN OVC004
     FM050100 21008KT 3SM -SN OVC012
     FM050300 24009KT P6SM SCT012 OVC020=

USA.gov is the U.S. government's official web portal to all federal, state and local government web resources and services.